sensor_id;sensor_type;location;lat;lon;timestamp;pressure;altitude;pressure_sealevel;temperature;humidity
1401;BME280;46518;48.842;8.926;2023-12-20T00:02:21;97154.19;;;6.56;94.90
1401;BME280;46518;48.842;8.926;2023-12-20T00:04:50;97159.63;;;6.36;97.79
1401;BME280;46518;48.842;8.926;2023-12-20T00:07:18;97149.78;;;6.57;96.80
1401;BME280;46518;48.842;8.926;2023-12-20T00:09:46;97154.84;;;6.33;97.96
1401;BME280;46518;48.842;8.926;2023-12-20T00:12:16;97141.44;;;6.48;98.69
1401;BME280;46518;48.842;8.926;2023-12-20T00:14:44;97135.09;;;6.74;97.76
1401;BME280;46518;48.842;8.926;2023-12-20T00:17:12;97132.25;;;6.39;99.96
1401;BME280;46518;48.842;8.926;2023-12-20T00:19:40;97124.78;;;6.61;99.94
1401;BME280;46518;48.842;8.926;2023-12-20T00:22:08;97127.84;;;6.39;100.00
1401;BME280;46518;48.842;8.926;2023-12-20T00:24:36;97119.34;;;6.07;100.00
1401;BME280;46518;48.842;8.926;2023-12-20T00:27:05;97116.00;;;6.18;100.00
1401;BME280;46518;48.842;8.926;2023-12-20T00:29:34;97117.31;;;6.46;100.00
1401;BME280;46518;48.842;8.926;2023-12-20T00:32:02;97111.56;;;6.56;100.00
1401;BME280;46518;48.842;8.926;2023-12-20T00:34:31;97112.88;;;6.28;100.00
1401;BME280;46518;48.842;8.926;2023-12-20T00:36:59;97097.34;;;6.15;100.00
1401;BME280;46518;48.842;8.926;2023-12-20T00:39:30;97117.97;;;6.04;100.00
1401;BME280;46518;48.842;8.926;2023-12-20T00:42:01;97109.69;;;6.08;100.00
1401;BME280;46518;48.842;8.926;2023-12-20T00:44:29;97117.53;;;6.26;100.00
1401;BME280;46518;48.842;8.926;2023-12-20T00:46:59;97113.91;;;6.27;100.00
1401;BME280;46518;48.842;8.926;2023-12-20T00:49:27;97121.53;;;6.29;100.00
1401;BME280;46518;48.842;8.926;2023-12-20T00:51:57;97124.47;;;6.14;100.00
1401;BME280;46518;48.842;8.926;2023-12-20T00:54:25;97120.06;;;6.14;100.00
1401;BME280;46518;48.842;8.926;2023-12-20T00:56:53;97125.22;;;6.21;100.00
1401;BME280;46518;48.842;8.926;2023-12-20T00:59:22;97122.25;;;6.36;100.00
1401;BME280;46518;48.842;8.926;2023-12-20T01:01:54;97109.31;;;6.41;100.00
1401;BME280;46518;48.842;8.926;2023-12-20T01:04:23;97113.97;;;6.57;100.00
1401;BME280;46518;48.842;8.926;2023-12-20T01:06:52;97113.69;;;6.47;100.00
1401;BME280;46518;48.842;8.926;2023-12-20T01:09:24;97100.47;;;6.42;100.00
1401;BME280;46518;48.842;8.926;2023-12-20T01:11:53;97115.28;;;6.48;100.00
1401;BME280;46518;48.842;8.926;2023-12-20T01:14:21;97116.66;;;6.51;100.00
1401;BME280;46518;48.842;8.926;2023-12-20T01:16:49;97111.16;;;6.22;100.00
1401;BME280;46518;48.842;8.926;2023-12-20T01:19:17;97115.06;;;6.13;100.00
1401;BME280;46518;48.842;8.926;2023-12-20T01:21:47;97113.59;;;5.98;100.00
1401;BME280;46518;48.842;8.926;2023-12-20T01:24:15;97125.06;;;5.91;100.00
1401;BME280;46518;48.842;8.926;2023-12-20T01:26:44;97129.50;;;5.90;100.00
1401;BME280;46518;48.842;8.926;2023-12-20T01:29:12;97114.31;;;6.05;100.00
1401;BME280;46518;48.842;8.926;2023-12-20T01:31:41;97129.78;;;6.07;100.00
1401;BME280;46518;48.842;8.926;2023-12-20T01:34:09;97111.66;;;6.12;100.00
1401;BME280;46518;48.842;8.926;2023-12-20T01:36:37;97120.28;;;6.13;100.00
1401;BME280;46518;48.842;8.926;2023-12-20T01:39:12;97117.97;;;6.04;100.00
1401;BME280;46518;48.842;8.926;2023-12-20T01:41:54;97112.94;;;6.03;100.00
1401;BME280;46518;48.842;8.926;2023-12-20T01:44:22;97113.38;;;6.00;100.00
1401;BME280;46518;48.842;8.926;2023-12-20T01:46:53;97113.59;;;5.98;100.00
1401;BME280;46518;48.842;8.926;2023-12-20T01:49:22;97108.41;;;5.92;100.00
1401;BME280;46518;48.842;8.926;2023-12-20T01:51:51;97111.28;;;5.83;100.00
1401;BME280;46518;48.842;8.926;2023-12-20T01:54:21;97093.53;;;5.92;100.00
1401;BME280;46518;48.842;8.926;2023-12-20T01:56:50;97107.91;;;6.01;100.00
1401;BME280;46518;48.842;8.926;2023-12-20T01:59:21;97108.94;;;6.00;100.00
1401;BME280;46518;48.842;8.926;2023-12-20T02:01:50;97112.59;;;5.99;100.00
1401;BME280;46518;48.842;8.926;2023-12-20T02:04:18;97102.22;;;5.86;100.00
1401;BME280;46518;48.842;8.926;2023-12-20T02:06:48;97113.69;;;5.85;100.00
1401;BME280;46518;48.842;8.926;2023-12-20T02:09:22;97115.91;;;5.81;100.00
1401;BME280;46518;48.842;8.926;2023-12-20T02:11:50;97102.38;;;5.66;100.00
1401;BME280;46518;48.842;8.926;2023-12-20T02:14:18;97103.41;;;5.65;100.00
1401;BME280;46518;48.842;8.926;2023-12-20T02:16:47;97115.75;;;5.51;100.00
1401;BME280;46518;48.842;8.926;2023-12-20T02:19:17;97114.59;;;5.47;100.00
1401;BME280;46518;48.842;8.926;2023-12-20T02:22:05;97104.00;;;5.42;100.00
1401;BME280;46518;48.842;8.926;2023-12-20T02:24:33;97114.84;;;5.39;100.00
1401;BME280;46518;48.842;8.926;2023-12-20T02:27:02;97104.56;;;5.44;100.00
1401;BME280;46518;48.842;8.926;2023-12-20T02:29:30;97113.09;;;5.33;100.00
1401;BME280;46518;48.842;8.926;2023-12-20T02:32:02;97118.16;;;5.21;100.00
1401;BME280;46518;48.842;8.926;2023-12-20T02:34:30;97119.97;;;5.27;100.00
1401;BME280;46518;48.842;8.926;2023-12-20T02:37:00;97109.97;;;5.17;100.00
1401;BME280;46518;48.842;8.926;2023-12-20T02:39:29;97118.97;;;5.22;100.00
1401;BME280;46518;48.842;8.926;2023-12-20T02:41:58;97126.06;;;5.14;100.00
1401;BME280;46518;48.842;8.926;2023-12-20T02:44:26;97121.41;;;5.16;100.00
1401;BME280;46518;48.842;8.926;2023-12-20T02:46:54;97120.50;;;5.04;100.00
1401;BME280;46518;48.842;8.926;2023-12-20T02:49:23;97125.28;;;5.07;100.00
1401;BME280;46518;48.842;8.926;2023-12-20T02:51:51;97127.91;;;5.07;100.00
1401;BME280;46518;48.842;8.926;2023-12-20T02:54:21;97113.06;;;5.01;100.00
1401;BME280;46518;48.842;8.926;2023-12-20T02:56:49;97128.34;;;4.97;100.00
1401;BME280;46518;48.842;8.926;2023-12-20T02:59:17;97125.75;;;4.97;100.00
1401;BME280;46518;48.842;8.926;2023-12-20T03:01:46;97130.19;;;4.90;100.00
1401;BME280;46518;48.842;8.926;2023-12-20T03:04:14;97134.44;;;4.85;100.00
1401;BME280;46518;48.842;8.926;2023-12-20T03:06:43;97127.84;;;4.82;100.00
1401;BME280;46518;48.842;8.926;2023-12-20T03:09:11;97126.03;;;4.76;100.00
1401;BME280;46518;48.842;8.926;2023-12-20T03:11:41;97134.47;;;4.78;100.00
1401;BME280;46518;48.842;8.926;2023-12-20T03:14:09;97134.47;;;4.71;100.00
1401;BME280;46518;48.842;8.926;2023-12-20T03:16:39;97134.72;;;4.63;100.00
1401;BME280;46518;48.842;8.926;2023-12-20T03:19:07;97137.16;;;4.58;100.00
1401;BME280;46518;48.842;8.926;2023-12-20T03:21:36;97147.94;;;4.62;100.00
1401;BME280;46518;48.842;8.926;2023-12-20T03:24:05;97136.78;;;4.48;100.00
1401;BME280;46518;48.842;8.926;2023-12-20T03:26:34;97143.19;;;4.52;100.00
1401;BME280;46518;48.842;8.926;2023-12-20T03:29:04;97153.03;;;4.50;100.00
1401;BME280;46518;48.842;8.926;2023-12-20T03:31:32;97142.19;;;4.53;100.00
1401;BME280;46518;48.842;8.926;2023-12-20T03:34:01;97140.00;;;4.50;100.00
1401;BME280;46518;48.842;8.926;2023-12-20T03:36:30;97138.97;;;4.51;100.00
1401;BME280;46518;48.842;8.926;2023-12-20T03:38:59;97140.38;;;4.53;100.00
1401;BME280;46518;48.842;8.926;2023-12-20T03:41:27;97146.78;;;4.51;100.00
1401;BME280;46518;48.842;8.926;2023-12-20T03:43:58;97145.03;;;4.45;100.00
1401;BME280;46518;48.842;8.926;2023-12-20T03:46:28;97150.78;;;4.53;100.00
1401;BME280;46518;48.842;8.926;2023-12-20T03:48:56;97148.78;;;4.49;100.00
1401;BME280;46518;48.842;8.926;2023-12-20T03:51:26;97154.44;;;4.46;100.00
1401;BME280;46518;48.842;8.926;2023-12-20T03:53:54;97147.38;;;4.53;100.00
1401;BME280;46518;48.842;8.926;2023-12-20T03:56:23;97150.84;;;4.47;100.00
1401;BME280;46518;48.842;8.926;2023-12-20T03:58:51;97154.00;;;4.49;100.00
1401;BME280;46518;48.842;8.926;2023-12-20T04:01:19;97148.84;;;4.42;100.00
1401;BME280;46518;48.842;8.926;2023-12-20T04:03:49;97151.41;;;4.49;100.00
1401;BME280;46518;48.842;8.926;2023-12-20T04:06:18;97160.44;;;4.46;100.00
1401;BME280;46518;48.842;8.926;2023-12-20T04:08:47;97152.66;;;4.40;100.00
1401;BME280;46518;48.842;8.926;2023-12-20T04:11:17;97155.22;;;4.53;100.00
1401;BME280;46518;48.842;8.926;2023-12-20T04:13:46;97161.03;;;4.48;100.00
1401;BME280;46518;48.842;8.926;2023-12-20T04:16:14;97161.47;;;4.39;100.00
1401;BME280;46518;48.842;8.926;2023-12-20T04:18:42;97164.66;;;4.41;100.00
1401;BME280;46518;48.842;8.926;2023-12-20T04:21:12;97180.91;;;4.43;100.00
1401;BME280;46518;48.842;8.926;2023-12-20T04:23:40;97151.03;;;4.39;100.00
1401;BME280;46518;48.842;8.926;2023-12-20T04:26:08;97173.09;;;4.43;100.00
1401;BME280;46518;48.842;8.926;2023-12-20T04:28:37;97166.47;;;4.40;100.00
1401;BME280;46518;48.842;8.926;2023-12-20T04:31:05;97169.88;;;4.41;100.00
1401;BME280;46518;48.842;8.926;2023-12-20T04:33:34;97170.06;;;4.46;100.00
1401;BME280;46518;48.842;8.926;2023-12-20T04:36:02;97183.69;;;4.41;100.00
1401;BME280;46518;48.842;8.926;2023-12-20T04:38:32;97187.72;;;4.37;100.00
1401;BME280;46518;48.842;8.926;2023-12-20T04:41:02;97197.50;;;4.48;100.00
1401;BME280;46518;48.842;8.926;2023-12-20T04:43:33;97194.13;;;4.48;100.00
1401;BME280;46518;48.842;8.926;2023-12-20T04:46:01;97189.09;;;4.53;100.00
1401;BME280;46518;48.842;8.926;2023-12-20T04:48:29;97186.25;;;4.61;100.00
1401;BME280;46518;48.842;8.926;2023-12-20T04:50:57;97201.09;;;4.54;100.00
1401;BME280;46518;48.842;8.926;2023-12-20T04:53:26;97192.91;;;4.57;100.00
1401;BME280;46518;48.842;8.926;2023-12-20T04:55:55;97200.50;;;4.65;100.00
1401;BME280;46518;48.842;8.926;2023-12-20T04:58:24;97202.06;;;4.66;100.00
1401;BME280;46518;48.842;8.926;2023-12-20T05:00:53;97201.47;;;4.71;100.00
1401;BME280;46518;48.842;8.926;2023-12-20T05:03:21;97208.88;;;4.74;100.00
1401;BME280;46518;48.842;8.926;2023-12-20T05:05:49;97211.91;;;4.71;100.00
1401;BME280;46518;48.842;8.926;2023-12-20T05:08:17;97220.31;;;4.73;100.00
1401;BME280;46518;48.842;8.926;2023-12-20T05:10:48;97222.31;;;4.71;100.00
1401;BME280;46518;48.842;8.926;2023-12-20T05:13:18;97213.09;;;4.75;100.00
1401;BME280;46518;48.842;8.926;2023-12-20T05:15:46;97211.66;;;4.79;100.00
1401;BME280;46518;48.842;8.926;2023-12-20T05:18:14;97222.88;;;4.86;100.00
1401;BME280;46518;48.842;8.926;2023-12-20T05:20:42;97222.06;;;4.86;100.00
1401;BME280;46518;48.842;8.926;2023-12-20T05:23:10;97235.72;;;4.88;100.00
1401;BME280;46518;48.842;8.926;2023-12-20T05:25:38;97223.88;;;4.85;100.00
1401;BME280;46518;48.842;8.926;2023-12-20T05:28:10;97235.06;;;4.99;100.00
1401;BME280;46518;48.842;8.926;2023-12-20T05:30:42;97231.88;;;4.97;100.00
1401;BME280;46518;48.842;8.926;2023-12-20T05:33:10;97231.09;;;4.90;100.00
1401;BME280;46518;48.842;8.926;2023-12-20T05:35:39;97246.75;;;4.90;100.00
1401;BME280;46518;48.842;8.926;2023-12-20T05:38:07;97248.16;;;4.86;100.00
1401;BME280;46518;48.842;8.926;2023-12-20T05:40:35;97242.53;;;4.89;100.00
1401;BME280;46518;48.842;8.926;2023-12-20T05:43:04;97249.53;;;4.95;100.00
1401;BME280;46518;48.842;8.926;2023-12-20T05:45:31;97236.88;;;4.98;100.00
1401;BME280;46518;48.842;8.926;2023-12-20T05:48:01;97250.13;;;4.97;100.00
1401;BME280;46518;48.842;8.926;2023-12-20T05:50:30;97255.91;;;5.06;100.00
1401;BME280;46518;48.842;8.926;2023-12-20T05:52:58;97259.38;;;5.00;100.00
1401;BME280;46518;48.842;8.926;2023-12-20T05:55:26;97264.56;;;5.00;100.00
1401;BME280;46518;48.842;8.926;2023-12-20T05:57:54;97277.03;;;4.97;100.00
1401;BME280;46518;48.842;8.926;2023-12-20T06:00:22;97265.81;;;4.90;100.00
1401;BME280;46518;48.842;8.926;2023-12-20T06:02:52;97280.00;;;5.01;100.00
1401;BME280;46518;48.842;8.926;2023-12-20T06:05:22;97286.84;;;4.95;100.00
1401;BME280;46518;48.842;8.926;2023-12-20T06:07:51;97281.44;;;4.97;100.00
1401;BME280;46518;48.842;8.926;2023-12-20T06:10:19;97287.47;;;4.91;100.00
1401;BME280;46518;48.842;8.926;2023-12-20T06:12:49;97284.03;;;4.97;100.00
1401;BME280;46518;48.842;8.926;2023-12-20T06:15:18;97275.03;;;4.93;100.00
1401;BME280;46518;48.842;8.926;2023-12-20T06:17:46;97276.59;;;4.94;100.00
1401;BME280;46518;48.842;8.926;2023-12-20T06:20:15;97289.22;;;5.04;100.00
1401;BME280;46518;48.842;8.926;2023-12-20T06:22:46;97296.84;;;5.12;100.00
1401;BME280;46518;48.842;8.926;2023-12-20T06:25:18;97296.66;;;5.07;100.00
1401;BME280;46518;48.842;8.926;2023-12-20T06:27:47;97304.06;;;5.03;100.00
1401;BME280;46518;48.842;8.926;2023-12-20T06:30:18;97300.06;;;5.01;100.00
1401;BME280;46518;48.842;8.926;2023-12-20T06:32:46;97300.06;;;5.01;100.00
1401;BME280;46518;48.842;8.926;2023-12-20T06:35:16;97297.09;;;4.97;100.00
1401;BME280;46518;48.842;8.926;2023-12-20T06:37:49;97283.44;;;4.88;100.00
1401;BME280;46518;48.842;8.926;2023-12-20T06:40:48;97306.50;;;4.91;100.00
1401;BME280;46518;48.842;8.926;2023-12-20T06:43:22;97317.13;;;4.96;100.00
1401;BME280;46518;48.842;8.926;2023-12-20T06:46:12;97311.34;;;4.94;100.00
1401;BME280;46518;48.842;8.926;2023-12-20T06:48:44;97307.28;;;5.05;100.00
1401;BME280;46518;48.842;8.926;2023-12-20T06:51:14;97323.56;;;4.94;100.00
1401;BME280;46518;48.842;8.926;2023-12-20T06:53:44;97320.16;;;4.93;100.00
1401;BME280;46518;48.842;8.926;2023-12-20T06:56:13;97329.19;;;4.97;100.00
1401;BME280;46518;48.842;8.926;2023-12-20T06:58:46;97324.75;;;4.91;100.00
1401;BME280;46518;48.842;8.926;2023-12-20T07:01:15;97329.97;;;4.98;100.00
1401;BME280;46518;48.842;8.926;2023-12-20T07:03:45;97338.03;;;4.90;100.00
1401;BME280;46518;48.842;8.926;2023-12-20T07:06:18;97336.81;;;4.86;100.00
1401;BME280;46518;48.842;8.926;2023-12-20T07:08:50;97348.44;;;4.76;100.00
1401;BME280;46518;48.842;8.926;2023-12-20T07:11:19;97342.66;;;4.74;100.00
1401;BME280;46518;48.842;8.926;2023-12-20T07:13:47;97375.16;;;4.65;100.00
1401;BME280;46518;48.842;8.926;2023-12-20T07:16:19;97371.13;;;4.56;100.00
1401;BME280;46518;48.842;8.926;2023-12-20T07:18:47;97373.53;;;4.51;100.00
1401;BME280;46518;48.842;8.926;2023-12-20T07:21:16;97392.78;;;4.50;100.00
1401;BME280;46518;48.842;8.926;2023-12-20T07:23:47;97393.38;;;4.59;100.00
1401;BME280;46518;48.842;8.926;2023-12-20T07:26:18;97396.56;;;4.54;100.00
1401;BME280;46518;48.842;8.926;2023-12-20T07:28:46;97394.59;;;4.49;100.00
1401;BME280;46518;48.842;8.926;2023-12-20T07:31:15;97384.56;;;4.40;100.00
1401;BME280;46518;48.842;8.926;2023-12-20T07:33:43;97384.38;;;4.54;100.00
1401;BME280;46518;48.842;8.926;2023-12-20T07:36:12;97372.53;;;4.45;100.00
1401;BME280;46518;48.842;8.926;2023-12-20T07:38:44;97378.53;;;4.39;100.00
1401;BME280;46518;48.842;8.926;2023-12-20T07:41:15;97372.13;;;4.35;100.00
1401;BME280;46518;48.842;8.926;2023-12-20T07:43:45;97377.31;;;4.42;100.00
1401;BME280;46518;48.842;8.926;2023-12-20T07:46:16;97376.13;;;4.31;100.00
1401;BME280;46518;48.842;8.926;2023-12-20T07:48:45;97367.09;;;4.20;100.00
1401;BME280;46518;48.842;8.926;2023-12-20T07:51:15;97382.31;;;4.23;100.00
1401;BME280;46518;48.842;8.926;2023-12-20T07:53:45;97383.53;;;4.27;100.00
1401;BME280;46518;48.842;8.926;2023-12-20T07:56:14;97377.13;;;4.30;100.00
1401;BME280;46518;48.842;8.926;2023-12-20T07:58:44;97377.69;;;4.12;100.00
1401;BME280;46518;48.842;8.926;2023-12-20T08:01:20;97383.34;;;4.22;100.00
1401;BME280;46518;48.842;8.926;2023-12-20T08:03:52;97380.69;;;4.16;100.00
1401;BME280;46518;48.842;8.926;2023-12-20T08:06:23;97389.31;;;4.16;100.00
1401;BME280;46518;48.842;8.926;2023-12-20T08:08:52;97392.50;;;4.11;100.00
1401;BME280;46518;48.842;8.926;2023-12-20T08:11:32;97398.13;;;4.08;100.00
1401;BME280;46518;48.842;8.926;2023-12-20T08:14:01;97400.28;;;3.98;100.00
1401;BME280;46518;48.842;8.926;2023-12-20T08:16:30;97410.34;;;4.08;100.00
1401;BME280;46518;48.842;8.926;2023-12-20T08:18:59;97410.88;;;3.97;100.00
1401;BME280;46518;48.842;8.926;2023-12-20T08:21:27;97402.72;;;4.06;100.00
1401;BME280;46518;48.842;8.926;2023-12-20T08:23:56;97410.75;;;4.05;100.00
1401;BME280;46518;48.842;8.926;2023-12-20T08:26:26;97414.31;;;4.04;100.00
1401;BME280;46518;48.842;8.926;2023-12-20T08:28:55;97409.34;;;4.02;100.00
1401;BME280;46518;48.842;8.926;2023-12-20T08:31:28;97417.28;;;3.94;100.00
1401;BME280;46518;48.842;8.926;2023-12-20T08:34:00;97414.88;;;3.86;100.00
1401;BME280;46518;48.842;8.926;2023-12-20T08:36:32;97415.09;;;3.91;100.00
1401;BME280;46518;48.842;8.926;2023-12-20T08:39:02;97414.91;;;3.93;100.00
1401;BME280;46518;48.842;8.926;2023-12-20T08:41:36;97429.13;;;3.90;100.00
1401;BME280;46518;48.842;8.926;2023-12-20T08:44:05;97430.09;;;3.89;100.00
1401;BME280;46518;48.842;8.926;2023-12-20T08:46:36;97436.72;;;3.92;100.00
1401;BME280;46518;48.842;8.926;2023-12-20T08:49:05;97430.53;;;3.93;100.00
1401;BME280;46518;48.842;8.926;2023-12-20T08:51:36;97418.13;;;4.01;100.00
1401;BME280;46518;48.842;8.926;2023-12-20T08:54:09;97418.69;;;3.90;100.00
1401;BME280;46518;48.842;8.926;2023-12-20T08:56:40;97420.50;;;3.96;100.00
1401;BME280;46518;48.842;8.926;2023-12-20T08:59:09;97423.34;;;4.01;100.00
1401;BME280;46518;48.842;8.926;2023-12-20T09:01:40;97421.34;;;4.03;100.00
1401;BME280;46518;48.842;8.926;2023-12-20T09:04:09;97416.56;;;4.07;100.00
1401;BME280;46518;48.842;8.926;2023-12-20T09:06:38;97409.75;;;4.13;100.00
1401;BME280;46518;48.842;8.926;2023-12-20T09:09:07;97406.72;;;4.09;100.00
1401;BME280;46518;48.842;8.926;2023-12-20T09:11:40;97411.38;;;4.20;100.00
1401;BME280;46518;48.842;8.926;2023-12-20T09:14:14;97403.97;;;4.17;100.00
1401;BME280;46518;48.842;8.926;2023-12-20T09:16:44;97407.94;;;4.13;100.00
1401;BME280;46518;48.842;8.926;2023-12-20T09:19:12;97406.56;;;4.17;100.00
1401;BME280;46518;48.842;8.926;2023-12-20T09:21:41;97407.38;;;4.18;100.00
1401;BME280;46518;48.842;8.926;2023-12-20T09:24:10;97399.91;;;4.01;100.00
1401;BME280;46518;48.842;8.926;2023-12-20T09:26:38;97399.94;;;4.15;100.00
1401;BME280;46518;48.842;8.926;2023-12-20T09:29:08;97393.72;;;4.16;100.00
1401;BME280;46518;48.842;8.926;2023-12-20T09:31:42;97398.38;;;4.27;100.00
1401;BME280;46518;48.842;8.926;2023-12-20T09:34:14;97399.94;;;4.15;100.00
1401;BME280;46518;48.842;8.926;2023-12-20T09:36:43;97416.97;;;4.24;100.00
1401;BME280;46518;48.842;8.926;2023-12-20T09:39:14;97406.78;;;4.36;100.00
1401;BME280;46518;48.842;8.926;2023-12-20T09:41:57;97426.41;;;4.25;100.00
1401;BME280;46518;48.842;8.926;2023-12-20T09:44:27;97422.25;;;4.37;100.00
1401;BME280;46518;48.842;8.926;2023-12-20T09:46:56;97421.19;;;4.31;100.00
1401;BME280;46518;48.842;8.926;2023-12-20T09:49:27;97420.63;;;4.29;100.00
1401;BME280;46518;48.842;8.926;2023-12-20T09:51:56;97419.00;;;4.28;100.00
1401;BME280;46518;48.842;8.926;2023-12-20T09:54:27;97422.41;;;4.29;100.00
1401;BME280;46518;48.842;8.926;2023-12-20T09:56:59;97424.19;;;4.22;100.00
1401;BME280;46518;48.842;8.926;2023-12-20T09:59:29;97430.41;;;4.21;100.00
1401;BME280;46518;48.842;8.926;2023-12-20T10:01:57;97437.41;;;4.14;100.00
1401;BME280;46518;48.842;8.926;2023-12-20T10:04:31;97430.00;;;4.17;100.00
1401;BME280;46518;48.842;8.926;2023-12-20T10:07:02;97424.75;;;4.04;100.00
1401;BME280;46518;48.842;8.926;2023-12-20T10:09:33;97417.91;;;3.96;100.00
1401;BME280;46518;48.842;8.926;2023-12-20T10:12:08;97419.13;;;4.00;100.00
1401;BME280;46518;48.842;8.926;2023-12-20T10:14:38;97415.88;;;3.92;100.00
1401;BME280;46518;48.842;8.926;2023-12-20T10:17:06;97416.31;;;3.95;100.00
1401;BME280;46518;48.842;8.926;2023-12-20T10:19:37;97414.91;;;3.93;100.00
1401;BME280;46518;48.842;8.926;2023-12-20T10:22:05;97418.88;;;3.88;100.00
1401;BME280;46518;48.842;8.926;2023-12-20T10:24:33;97416.09;;;3.97;100.00
1401;BME280;46518;48.842;8.926;2023-12-20T10:27:02;97409.69;;;3.99;100.00
1401;BME280;46518;48.842;8.926;2023-12-20T10:29:35;97396.50;;;4.01;100.00
1401;BME280;46518;48.842;8.926;2023-12-20T10:32:24;97400.94;;;4.14;99.04
1401;BME280;46518;48.842;8.926;2023-12-20T10:34:57;97405.16;;;4.21;98.19
1401;BME280;46518;48.842;8.926;2023-12-20T10:37:26;97399.97;;;4.28;97.19
1401;BME280;46518;48.842;8.926;2023-12-20T10:39:59;97405.81;;;4.43;96.35
1401;BME280;46518;48.842;8.926;2023-12-20T10:42:33;97393.38;;;4.45;97.71
1401;BME280;46518;48.842;8.926;2023-12-20T10:45:05;97404.81;;;4.51;97.72
1401;BME280;46518;48.842;8.926;2023-12-20T10:47:33;97402.22;;;4.58;96.93
1401;BME280;46518;48.842;8.926;2023-12-20T10:50:08;97395.19;;;4.58;97.50
1401;BME280;46518;48.842;8.926;2023-12-20T10:52:37;97384.16;;;4.63;96.22
1401;BME280;46518;48.842;8.926;2023-12-20T10:55:07;97392.38;;;4.53;97.34
1401;BME280;46518;48.842;8.926;2023-12-20T10:57:37;97393.56;;;4.30;98.25
1401;BME280;46518;48.842;8.926;2023-12-20T11:00:08;97396.75;;;4.26;98.96
1401;BME280;46518;48.842;8.926;2023-12-20T11:02:41;97388.28;;;4.04;98.82
1401;BME280;46518;48.842;8.926;2023-12-20T11:05:22;97397.34;;;4.15;100.00
1401;BME280;46518;48.842;8.926;2023-12-20T11:07:54;97408.56;;;4.15;99.41
1401;BME280;46518;48.842;8.926;2023-12-20T11:10:29;97400.53;;;4.17;99.65
1401;BME280;46518;48.842;8.926;2023-12-20T11:13:02;97389.31;;;4.16;99.18
1401;BME280;46518;48.842;8.926;2023-12-20T11:15:39;97391.34;;;4.21;98.88
1401;BME280;46518;48.842;8.926;2023-12-20T11:18:08;97400.56;;;4.23;97.94
1401;BME280;46518;48.842;8.926;2023-12-20T11:20:39;97392.13;;;4.21;98.25
1401;BME280;46518;48.842;8.926;2023-12-20T11:23:08;97374.31;;;4.25;94.73
1401;BME280;46518;48.842;8.926;2023-12-20T11:25:53;97381.94;;;4.33;94.55
1401;BME280;46518;48.842;8.926;2023-12-20T11:28:23;97376.75;;;4.40;93.62
1401;BME280;46518;48.842;8.926;2023-12-20T11:30:52;97380.97;;;4.47;94.11
1401;BME280;46518;48.842;8.926;2023-12-20T11:33:22;97375.53;;;4.49;94.04
1401;BME280;46518;48.842;8.926;2023-12-20T11:35:57;97379.16;;;4.61;94.21
1401;BME280;46518;48.842;8.926;2023-12-20T11:38:25;97382.13;;;4.51;94.73
1401;BME280;46518;48.842;8.926;2023-12-20T11:40:54;97386.16;;;4.54;93.80
1401;BME280;46518;48.842;8.926;2023-12-20T11:43:35;97389.38;;;4.63;94.90
1401;BME280;46518;48.842;8.926;2023-12-20T11:46:04;97386.97;;;4.74;93.52
1401;BME280;46518;48.842;8.926;2023-12-20T11:48:35;97383.56;;;4.74;92.48
1401;BME280;46518;48.842;8.926;2023-12-20T11:51:13;97379.75;;;4.90;93.56
1401;BME280;46518;48.842;8.926;2023-12-20T11:53:41;97376.53;;;4.88;91.90
1401;BME280;46518;48.842;8.926;2023-12-20T11:56:10;97374.53;;;4.90;90.21
1401;BME280;46518;48.842;8.926;2023-12-20T11:58:42;97361.28;;;5.05;90.25
1401;BME280;46518;48.842;8.926;2023-12-20T12:01:10;97362.44;;;5.09;89.52
1401;BME280;46518;48.842;8.926;2023-12-20T12:03:38;97365.09;;;5.02;90.02
1401;BME280;46518;48.842;8.926;2023-12-20T12:06:07;97356.84;;;4.98;88.90
1401;BME280;46518;48.842;8.926;2023-12-20T12:08:37;97369.25;;;5.16;89.12
1401;BME280;46518;48.842;8.926;2023-12-20T12:11:05;97366.69;;;5.10;87.36
1401;BME280;46518;48.842;8.926;2023-12-20T12:13:33;97365.69;;;4.97;87.27
1401;BME280;46518;48.842;8.926;2023-12-20T12:16:02;97364.88;;;5.10;88.05
1401;BME280;46518;48.842;8.926;2023-12-20T12:18:32;97357.59;;;5.19;88.46
1401;BME280;46518;48.842;8.926;2023-12-20T12:21:01;97359.28;;;5.07;88.20
1401;BME280;46518;48.842;8.926;2023-12-20T12:23:40;97356.06;;;5.05;88.69
1401;BME280;46518;48.842;8.926;2023-12-20T12:26:08;97343.75;;;5.25;88.65
1401;BME280;46518;48.842;8.926;2023-12-20T12:28:39;97347.00;;;5.14;90.66
1401;BME280;46518;48.842;8.926;2023-12-20T12:31:09;97365.69;;;5.04;89.03
1401;BME280;46518;48.842;8.926;2023-12-20T12:33:40;97363.69;;;4.93;89.42
1401;BME280;46518;48.842;8.926;2023-12-20T12:36:12;97360.47;;;4.97;88.07
1401;BME280;46518;48.842;8.926;2023-12-20T12:38:44;97348.22;;;4.98;90.76
1401;BME280;46518;48.842;8.926;2023-12-20T12:41:13;97338.81;;;4.84;91.06
1401;BME280;46518;48.842;8.926;2023-12-20T12:43:42;97343.03;;;4.85;90.32
1401;BME280;46518;48.842;8.926;2023-12-20T12:46:10;97344.22;;;4.95;91.40
1401;BME280;46518;48.842;8.926;2023-12-20T12:48:38;97336.97;;;5.11;89.87
1401;BME280;46518;48.842;8.926;2023-12-20T12:51:09;97343.03;;;4.91;89.38
1401;BME280;46518;48.842;8.926;2023-12-20T12:53:41;97342.03;;;4.92;89.71
1401;BME280;46518;48.842;8.926;2023-12-20T12:56:12;97340.44;;;4.78;89.61
1401;BME280;46518;48.842;8.926;2023-12-20T12:58:40;97338.25;;;4.68;91.61
1401;BME280;46518;48.842;8.926;2023-12-20T13:01:10;97348.88;;;4.80;92.00
1401;BME280;46518;48.842;8.926;2023-12-20T13:03:41;97331.59;;;4.92;91.34
1401;BME280;46518;48.842;8.926;2023-12-20T13:06:12;97344.00;;;5.04;91.16
1401;BME280;46518;48.842;8.926;2023-12-20T13:08:44;97340.41;;;5.05;91.02
1401;BME280;46518;48.842;8.926;2023-12-20T13:11:17;97342.78;;;5.06;88.00
1401;BME280;46518;48.842;8.926;2023-12-20T13:13:45;97336.16;;;5.17;89.17
1401;BME280;46518;48.842;8.926;2023-12-20T13:16:14;97346.78;;;5.09;87.85
1401;BME280;46518;48.842;8.926;2023-12-20T13:18:44;97337.75;;;5.25;88.43
1401;BME280;46518;48.842;8.926;2023-12-20T13:21:13;97344.13;;;5.29;85.89
1401;BME280;46518;48.842;8.926;2023-12-20T13:23:41;97354.81;;;5.14;87.28
1401;BME280;46518;48.842;8.926;2023-12-20T13:26:09;97350.84;;;5.05;88.04
1401;BME280;46518;48.842;8.926;2023-12-20T13:28:39;97335.41;;;4.90;85.62